SVMC/MAR METAR and TAF weather

Enter ICAO airport designator
Station Type Date Time Source
SVMC METAR 2020/03/16 18:00 UTC NOAA

SVMC 161800Z ///// 9999 SCT017 31/23 1013


Station Type Date Time Source
SVMC Decoded METAR 2020/03/16 18:00 UTC NOAA

Maracaibo-La Chinita, Venezuela (SVMC) 10-34N 071-44W 65M
Mar 16, 2020 - 02:00 PM EDT / 2020.03.16 1800 UTC
Visibility: greater than 7 mile(s):0
Sky conditions: partly cloudy
Temperature: 87 F (31 C)
Heat index: 93.9 F (34.4 C):1
Dew Point: 73 F (23 C)
Relative Humidity: 62%
ob: SVMC 161800Z ///// 9999 SCT017 31/23 1013
cycle: 18

Station Type Date Time Source
SVMC TAF 2020/03/31 06:03 UTC NOAA

TAF SVMC 310400Z 3106/0106 11006KT 9999 SCT016 TX33/19Z TN24/08Z
BECMG 3106/3110 18006KT 9999 BKN016

Example: see airport list